Pahranagat National Wildlife Refuge, Nevada Weather observations

Data are for 10 minute period ending at time listed.
 Day   Time   Solar   Ave.   Ave.  Ave.  Vector  Max.   Baro.   Total    
  of    of     Rad.   Air    Rel.  Wind   Wind   Wind  Press.  Precip.   
Year   Day            Temp.  Hum.  Speed  Dir.   Gust                    
2015   (PST)  Kw/m2    F      %     mph   deg.    mph    mb.     in.     
-------------------------------------------------------------------------
 110   12:50   0.83   83.4     7    5.3   136    12.9   896.1    0.00 
 110   13:00   0.82   82.8     7    3.8   124     6.9   896.0    0.00 
 110   13:10   0.81   82.7     7    5.0     3     9.7   895.8    0.00 
 110   13:20   0.80   83.3     7    4.7   202    11.8   895.7    0.00 
 110   13:30   0.54   83.2     7    3.5   248    12.1   895.5    0.00 
 110   13:40   0.75   82.7     7    4.3   257    10.0   895.4    0.00 
 110   13:50   0.75   84.2     7    6.5   288    17.7   895.1    0.00 
 110   14:00   0.74   84.6     7    7.1   179    17.3   895.1    0.00 
 110   14:10   0.72   84.3     8   10.4   177    20.5   894.9    0.00 
 110   14:20   0.70   84.4     7    7.0   207    14.8   894.8    0.00 
 110   14:30   0.68   85.1     7    5.8   224    14.1   894.6    0.00 
 110   14:40   0.66   84.5     7    6.9   241    17.0   894.6    0.00 
 110   14:50   0.61   84.0     7    4.5    11    12.3   894.3    0.00 
 110   15:00   0.59   85.1     7    6.1   284    14.3   894.3    0.00 
 110   15:10   0.56   84.7     7    6.6   213    14.5   894.2    0.00 
 110   15:20   0.56   84.8     7    4.7   185    15.4   894.1    0.00 
 110   15:30   0.54   85.3     7    6.5   190    11.5   894.0    0.00 
 110   15:40   0.50   85.3     8    7.9   188    13.8   894.0    0.00 
 110   15:50   0.47   84.4     7    6.3   220    11.9   894.0    0.00 
 110   16:00   0.42   83.6     7   10.3   243    16.3   893.9    0.00 
 110   16:10   0.39   83.7     6    4.4   292    10.1   893.9    0.00 
 110   16:20   0.36   84.3     7    6.0   207    14.2   893.8    0.00 
 110   16:30   0.15   81.9     7    7.5   227    14.2   893.8    0.00 
 110   16:40   0.28   81.3     7    5.1   236     7.7   893.7    0.00 
 110   16:50   0.24   83.1     7    3.3   227     6.7   893.6    0.00 
 110   17:00   0.22   82.9     8    3.6   169     8.9   893.5    0.00 
 110   17:10   0.19   81.6     8    6.4   200    12.6   893.4    0.00 
 110   17:20   0.15   81.5     9    5.0   174     7.8   893.5    0.00 
 110   17:30   0.10   80.2    10    6.2   177    10.5   893.4    0.00 
 110   17:40   0.03   77.1    11    5.9   161     9.9   893.4    0.00 
 110   17:50   0.06   76.1    12    5.6   160     9.6   893.5    0.00 
 110   18:00   0.03   75.5    12    5.7   166     9.0   893.7    0.00 
 110   18:10   0.01   73.3    14    3.9   172     6.9   893.8    0.00 
 110   18:20   0.01   72.1    15    2.9   158     5.5   893.9    0.00 
 110   18:30   0.00   70.2    14    2.9   140     4.7   894.0    0.00 
 110   18:40   0.00   69.4    16    3.0   148     4.7   894.2    0.00 
 110   18:50   0.00   69.9    16    2.8   149     5.8   894.4    0.00 
 110   19:00   0.00   71.2    14    5.7   174    10.1   894.6    0.00 
 110   19:10   0.00   69.7    14    4.3   135     7.5   894.7    0.00 
 110   19:20   0.00   68.6    13    4.5   125     5.5   894.7    0.00 
 110   19:30   0.00   67.7    14    3.6   119     5.0   894.8    0.00 
 110   19:40   0.00   66.9    14    4.1   104     4.9   894.8    0.00 
 110   19:50   0.00   66.7    14    2.5    71     5.1   895.0    0.00 
 110   20:00   0.00   62.0    17    2.9   330     5.2   895.1    0.00 
 110   20:10   0.00   59.7    20    1.7   327     3.1   895.3    0.00 
 110   20:20   0.00   54.4    27    2.4   292     5.1   895.4    0.00 
 110   20:30   0.00   53.6    27    2.0   360     3.4   895.5    0.00 
 110   20:40   0.00   58.4    19    2.4    50     3.3   895.5    0.00 
 110   20:50   0.00   64.4    14    2.6   107     5.1   895.6    0.00 
 110   21:00   0.00   63.5    16    2.8    81     4.7   895.6    0.00 
 110   21:10   0.00   63.7    14    4.0    56     5.4   895.6    0.00 
 110   21:20   0.00   63.0    17    3.2    87     5.3   895.6    0.00 
 110   21:30   0.00   61.5    21    1.4   138     3.6   895.6    0.00 
 110   21:40   0.00   63.1    16    2.0    53     3.4   895.7    0.00 
 110   21:50   0.00   59.1    25    1.0   110     2.6   895.7    0.00 
 110   22:00   0.00   57.9    20    3.5    19     5.8   895.7    0.00 
 110   22:10   0.00   55.4    24    3.4   342     4.9   895.8    0.00 
 110   22:20   0.00   53.4    26    2.1   360     4.5   895.8    0.00 
 110   22:30   0.00   50.1    31    1.4   308     3.1   895.9    0.00 
 110   22:40   0.00   48.5    35    2.7   329     3.5   895.9    0.00 
 110   22:50   0.00   47.5    34    2.7   333     4.6   895.9    0.00 
 110   23:00   0.00   47.1    34    3.5   346     4.9   896.0    0.00 
 110   23:10   0.00   46.9    35    2.0   331     3.9   896.1    0.00 
 110   23:20   0.00   46.3    36    2.0   334     4.3   896.2    0.00 
 110   23:30   0.00   44.3    42    3.2   337     4.2   896.3    0.00 
 110   23:40   0.00   41.9    48    2.2   318     4.2   896.3    0.00 
 110   23:50   0.00   40.8    48    1.6   343     3.1   896.2    0.00 
 111    0:00   0.00   43.5    41    1.5   339     2.9   896.1    0.00 
 111    0:10   0.00   43.2    44    2.4   316     3.9   896.2    0.00 
 111    0:20   0.00   43.9    41    2.5   351     3.9   896.2    0.00 
 111    0:30   0.00   42.8    46    1.4   292     3.6   896.2    0.00 
 111    0:40   0.00   42.0    49    1.3   180     3.1   896.2    0.00 
 111    0:50   0.00   45.9    37    2.1    96     3.4   896.2    0.00 
 111    1:00   0.00   48.3    29    1.5    33     2.6   896.2    0.00 
 111    1:10   0.00   44.2    36    1.6   352     3.0   896.2    0.00 
 111    1:20   0.00   39.4    51    1.9   328     3.9   896.3    0.00 
 111    1:30   0.00   38.4    60    1.0   321     2.9   896.4    0.00 
 111    1:40   0.00   37.9    61    3.0   308     4.5   896.3    0.00 
 111    1:50   0.00   36.8    64    0.9   308     2.4   896.2    0.00 
 111    2:00   0.00   38.1    62    1.3   297     2.3   896.2    0.00 
 111    2:10   0.00   40.0    56    1.4     1     2.2   896.3    0.00 
 111    2:20   0.00   42.0    51    1.9   304     2.9   896.4    0.00 
 111    2:30   0.00   43.0    46    2.3   306     4.5   896.5    0.00 
 111    2:40   0.00   43.7    43    4.0   326     5.6   896.6    0.00 
 111    2:50   0.00   41.7    46    3.9   349     5.1   896.6    0.00 
 111    3:00   0.00   40.5    51    3.4   329     5.0   896.6    0.00 
 111    3:10   0.00   40.0    52    2.6   276     3.3   896.8    0.00 
 111    3:20   0.00   38.5    56    1.6   316     3.3   896.8    0.00 
 111    3:30   0.00   39.0    53    3.0   340     5.4   896.7    0.00 
 111    3:40   0.00   38.3    57    3.3   294     5.4   896.7    0.00 
 111    3:50   0.00   38.9    54    2.6   321     4.3   896.7    0.00 
 111    4:00   0.00   39.5    52    4.2   315     5.8   896.8    0.00 
 111    4:10   0.00   39.2    52    4.1   317     4.9   896.8    0.00 
 111    4:20   0.00   40.0    51    5.1   346     7.2   896.9    0.00 
 111    4:30   0.00   41.0    49    3.1   327     6.5   897.0    0.00 
 111    4:40   0.00   39.9    53    3.1   306     4.2   897.2    0.00 
 111    4:50   0.00   39.7    53    0.7   167     2.0   897.3    0.00 
 111    5:00   0.00   41.5    46    2.3     2     4.0   897.3    0.00 
 111    5:10   0.01   41.2    50    2.5   313     4.7   897.5    0.00 
 111    5:20   0.02   40.1    47    3.8   358     4.7   897.5    0.00 
 111    5:30   0.04   40.6    43    2.8   351     4.8   897.7    0.00 
 111    5:40   0.04   41.2    47    0.6   325     2.1   897.9    0.00 
 111    5:50   0.07   40.7    58    0.8   229     1.8   898.0    0.00 
 111    6:00   0.12   42.9    56    0.8   235     1.7   898.0    0.00 
 111    6:10   0.13   46.1    50    1.3    84     2.3   898.1    0.00 
 111    6:20   0.17   48.8    41    1.0   264     2.8   898.1    0.00 
 111    6:30   0.21   50.8    36    2.0   255     3.0   898.4    0.00 
 111    6:40   0.24   53.2    30    3.9   322     7.1   898.5    0.00 
 111    6:50   0.22   55.7    26    1.8   353     4.7   898.6    0.00 
 111    7:00   0.31   57.1    23    3.9   353     7.5   898.6    0.00 
 111    7:10   0.23   57.9    22    4.0   331     7.0   898.7    0.00 
 111    7:20   0.28   57.5    22    4.6   336     7.0   898.6    0.00 
 111    7:30   0.48   60.6    20    3.7   331     7.0   898.6    0.00 
 111    7:40   0.47   62.8    18    2.9   307     6.3   898.6    0.00 
 111    7:50   0.51   64.3    17    2.2   297     5.0   898.6    0.00 
 111    8:00   0.52   65.9    16    2.2   295     5.3   898.6    0.00 
 111    8:10   0.53   66.9    15    2.4    59     4.8   898.5    0.00 
 111    8:20   0.53   69.5    14    2.6   142     5.4   898.6    0.00 
 111    8:30   0.51   70.0    14    1.8   176     4.3   898.5    0.00 
 111    8:40   0.55   70.4    13    2.5   138     5.8   898.5    0.00 
 111    8:50   0.66   71.5    12    5.1   140     8.6   898.5    0.00 
 111    9:00   0.69   72.4    13    5.0   133     9.3   898.4    0.00 
 111    9:10   0.63   73.9    12    6.5   148    10.2   898.4    0.00 
 111    9:20   0.67   74.0    12    8.2   136    13.3   898.3    0.00 
 111    9:30   0.70   75.8    12    8.1   149    12.3   898.3    0.00 
 111    9:40   0.40   75.9    11    8.0   137    14.1   898.2    0.00 
 111    9:50   0.33   74.6    12    7.8   145    12.7   898.1    0.00 
 111   10:00   0.40   74.5    12    7.5   149    10.8   898.1    0.00 
 111   10:10   0.79   76.9    11    7.5   149    12.1   898.0    0.00 
 111   10:20   0.81   78.3    11    6.8   144    13.1   897.8    0.00 
 111   10:30   0.82   79.4    10    4.0   172     9.7   897.6    0.00 
 111   10:40   0.71   79.5    10   11.4   140    23.3   897.3    0.00 
 111   10:50   0.69   79.8    11   12.6   155    19.3   897.2    0.00 
 111   11:00   0.41   78.0    12   12.9   158    19.6   897.2    0.00 
 111   11:10   0.39   76.6    13   12.9   154    19.9   897.2    0.00 
 111   11:20   0.85   78.4    12   15.2   155    26.2   897.1    0.00 
 111   11:30   0.38   77.8    11   10.6   176    22.4   897.1    0.00 
 111   11:40   0.38   77.0    12    9.2   158    17.1   897.1    0.00 
 111   11:50   0.40   76.8    13    9.7   161    15.1   897.0    0.00 
 111   12:00   0.92   79.5    12    9.3   176    14.0   896.8    0.00 
 111   12:10   0.73   80.6    11    7.9   186    15.1   896.7    0.00 
 111   12:20   0.85   79.7    11    5.8   174    12.1   896.5    0.00 
 111   12:30   0.59   80.3    10    6.9   171    16.5   896.4    0.00 
 111   12:40   0.27   77.8    11    6.7   152    13.2   896.2    0.00 

Return to Pahranagat N. Wildlife Refuge graphs page.


Western Regional Climate Center,wrcc@dri.edu